Aérodrome :
LOGIN :

S'inscrire | Disclaimer

   EN    FR    IT 

 










Légende :    VFR   VFR Marginal   IFR   IFR Intensif   IFR Très Intensif
Visi : 
Plafond : 
>= 8 km
>= 3000ft
5 à 8 km
1000 à 3000 ft
1500m à 5 km
500 à 1000 ft
800 à 1500m
200 à 500 ft
< 800m
< 200 ft
Symboles :   Orages  Brouillard  Fortes neiges  Fortes précipitations  Vent > 20 kt
SIGMETs :   Divers  Orages  Givrage  Turbulence  Onde Orograph.  Cendres Volcan.






- Altitude de l'aérodrome : 55 ft
- Code IATA : DSA


EGCN - Robin Hood Doncaster Sheffield

DERNIER METAR :
  • 220120Z VRB03KT CAVOK 03/03 Q1023

METARs EXPIRÉS :
  • 220050Z 22003KT CAVOK 03/03 Q1023
  • 220020Z 26005KT CAVOK 05/04 Q1023
  • 212350Z 26006KT CAVOK 05/04 Q1023
  • 212320Z 26005KT CAVOK 06/06 Q1023
  • 212250Z 24007KT CAVOK 07/06 Q1023

TAF TAF EGCN
Valide du 22 à 00h jusqu'au 23 à 00h UTC


212306Z 2200/2224 VRB03KT 9999 SCT040
PROB30
TEMPO 2200/2208 4000 BR
BECMG 2208/2211 23010KT
PROB30
TEMPO 2221/2224 8000



MET'MAP, la Météo Aéronautique d'un coup d'oeil ! - Copyright ORBIFLY Décembre 2007 - Disclaimer

ORBIFLY MET'MAP TEAM :

Programmation & Développement : Alexandra Zaïnal
Conception & Développement : Baudouin d'Aumeries
Co-Programmation & Développement : Marc-Olivier Méhu
Soutien technique & logistique : Manuel Goepfert

Contact : metmap@orbifly.com




SOURCES & CREDITS :

   NOAA